SSEC Globe Logo

Space Science and Engineering Center

Surface Aviation Observations

KAIG 232115Z AUTO 30017G23KT 10SM OVC013 M01/M03 A3006 RMK
     AO2 T10131034=
KAIG 232055Z AUTO 28017G20KT 10SM OVC013 M01/M03 A3005 RMK
     AO2 T10101031=
KC29 232115Z AUTO 25006KT 10SM OVC023 04/00 A3017 RMK AO1
     T00421002=
KC29 232055Z AUTO 26008G11KT 10SM OVC023 04/00 A3016 RMK AO1
     T00431002=
KBCK 232115Z AUTO 26010G15KT 10SM OVC020 00/M05 A3019 RMK
     AO2 T10011051=
KBCK 232055Z AUTO 25009KT 10SM OVC020 00/M05 A3018 RMK AO2
     T00001049=
KUBE 232115Z AUTO 27013KT 10SM OVC023 M01/M06 A3013 RMK AO2=
KUBE 232055Z AUTO 25011KT 10SM OVC021 M01/M06 A3013 RMK AO2=
KPVB 232115Z AUTO 27012G15KT 10SM BKN019 01/M01 A3021 RMK
     AO1 T00141008=
KPVB 232055Z AUTO 28012G16KT 10SM OVC019 01/M01 A3020 RMK
     AO1 T00111010=
KEZS 232115Z AUTO 28008G21KT 10SM OVC020 02/M02 A3009 RMK
     AO2 T00221021=
KEZS 232055Z AUTO 28012G20KT 10SM OVC020 03/M02 A3008 RMK
     AO2 T00251017=
KARV 232115Z AUTO 29008KT 10SM OVC016 M01/M03 A3005 RMK AO2
     T10121034=
KARV 232055Z AUTO 29008KT 10SM SCT010 OVC016 00/M02 A3004
     RMK AO2 T10011022=
KASX 232053Z AUTO 25011KT 10SM OVC024 M01/M05 A3011 RMK AO2
     SLP207 T10061050 51019=
KATW 232045Z 26015G18KT 10SM OVC015 02/M02 A3009=
KAUW 232104Z AUTO 28012KT 7SM OVC018 M01/M04 A3008 RMK AO2
     T10111044=
KAUW 232054Z AUTO 28011G21KT 6SM HZ BKN014 OVC020 M01/M04
     A3008 RMK AO2 PK WND 28026/2010 SLP205 T10111039 53017=
KBUU 232115Z AUTO 26010G17KT 10SM OVC016 03/00 A3018 RMK AO2
     T00281003=
KBUU 232055Z AUTO 27010G15KT 10SM OVC016 03/00 A3017 RMK AO2
     T00271002=
KCLI 232115Z AUTO 29012G18KT 10SM OVC018 01/M03 A3010 RMK
     AO2 T00121026=
KCLI 232055Z AUTO 29013G19KT 10SM OVC018 02/M02 A3009 RMK
     AO2 T00151025=
KCMY 232115Z AUTO 27009G15KT 10SM BKN026 01/M04 A3020 RMK
     AO2 T00061040=
KCMY 232055Z AUTO 26007KT 10SM BKN026 BKN031 01/M03 A3020
     RMK AO2 T00061034=
KCWA 232053Z 27011G23KT 10SM OVC017 M01/M03 A3011=
KDLL 232115Z AUTO 27011KT 10SM OVC024 02/M03 A3015 RMK AO2
     T00211026=
KDLL 232055Z AUTO 28006KT 10SM OVC024 03/M02 A3015 RMK AO2
     T00251016=
KEAU 232056Z 28008KT 6SM HZ BKN022 M02/M06 A3017 RMK AO2
     SLP228 T10171056 53006=
KEFT 232115Z AUTO 26016KT 10SM OVC016 02/M01 A3018 RMK AO2=
KEFT 232055Z AUTO 27012G20KT 10SM OVC016 02/M01 A3017 RMK
     AO2=
KEGV 232115Z AUTO 27008KT 10SM OVC010 M02/M04 A3002 RMK AO2
     T10201036=
KEGV 232055Z AUTO 28010G19KT 10SM OVC010 M02/M03 A3003 RMK
     AO2 T10201035=
KENW 232053Z 28013KT 10SM OVC017 04/00 A3017 RMK AO2 SLP223
     T00390000 53014=
KETB 232115Z AUTO 25009KT 10SM OVC016 02/00 A3014 RMK AO2=
KETB 232055Z AUTO 26009G15KT 10SM OVC014 02/01 A3012 RMK
     AO2=
KFLD 232053Z AUTO 27010G19KT 10SM OVC021 03/M01 A3012 RMK
     AO2 SLP209 T00281011 53010 TSNO=
KGRB 232053Z 26014KT 10SM OVC022 03/M02 A3009 RMK AO2 SLP197
     T00281017 53012=
KHYR 232053Z AUTO VRB05KT 10SM OVC024 M01/M05 A3010 RMK AO2
     SLP213 T10111050 51013=
KISW 232054Z AUTO 29009G21KT 10SM OVC015 M01/M04 A3015 RMK
     AO2 SLP222 T10061039 53016=
KJVL 232045Z 27013G20KT 10SM OVC018 04/00 A3018=
KLNL 232115Z AUTO 28007KT 10SM OVC015 M01/M04 A3004 RMK AO2
     T10151038=
KLNL 232055Z AUTO 26007KT 10SM BKN015 OVC021 M01/M04 A3003
     RMK AO2 T10151037=
KLNR 232056Z AUTO 27011KT 8SM SCT027 03/M02 A3019 RMK AO2
     SLP224 T00281022 51012=
KLSE 232053Z 30012KT 10SM CLR 01/M04 A3021 RMK AO2 SLP240
     T00111039 51012=
KLUM 232115Z AUTO 26008KT 10SM BKN024 M01/M05 A3018 RMK AO2
     T10071054=
KLUM 232055Z AUTO 26009KT 10SM OVC022 00/M05 A3018 RMK AO2
     T10051055=
KMDZ 232115Z AUTO 27012G16KT 10SM BKN015 OVC022 M02/M05
     A3008 RMK AO2 T10231050=
KMDZ 232055Z AUTO 28011G19KT 10SM OVC015 M02/M05 A3009 RMK
     AO2 T10231047=
KMFI 232054Z AUTO 28012G20KT 8SM FEW012 OVC020 M01/M04 A3011
     RMK AO2 SLP212 T10111044 53014 TSNO=
KMFI 232047Z AUTO 28014KT 7SM SCT012 OVC020 M01/M04 A3010
     RMK AO2 T10111039 TSNO=
KMKE 232052Z 25012G19KT 10SM OVC016 04/01 A3015 RMK AO2
     SLP218 T00440006 53013=
KMRJ 232115Z AUTO 27014G18KT 10SM SCT018 02/00 A3017 RMK
     AO2=
KMRJ 232055Z AUTO 28015G21KT 10SM SCT018 02/00 A3017 RMK
     AO2=
KMSN 232053Z 28008KT 10SM BKN021 BKN250 03/M02 A3016 RMK AO2
     SLP223 T00331017 53006=
KMTW 232056Z AUTO 27013G21KT 10SM OVC020 03/M01 A3010 RMK
     AO2 SLP216 T00281006 53013=
KMWC 232045Z 26010G14KT 10SM OVC016 03/M01 A3015=
KOEO 232115Z AUTO 26008KT 10SM CLR 01/M06 A3019 RMK AO2
     T00101058=
KOEO 232055Z AUTO 25008KT 10SM SCT027 01/M06 A3020 RMK AO2
     60001 T00111056=
KOSH 232053Z 27009G18KT 10SM OVC020 02/M02 A3012 RMK AO2
     SLP210 T00221017 53015=
KOVS 232053Z AUTO 26012G20KT 10SM CLR 03/M04 A3021 RMK AO2
     SLP238 T00331039 51009=
KPBH 232115Z AUTO 27005KT 10SM OVC017 M02/M04 A3008 RMK AO2
     T10201045=
KPBH 232055Z AUTO 27006KT 10SM OVC017 M02/M05 A3007 RMK AO2
     T10201046=
KPCZ 232115Z AUTO 26013KT 10SM OVC020 02/M02 A3014 RMK AO2
     T00211022=
KPCZ 232055Z AUTO 26013G24KT 10SM OVC020 02/M02 A3013 RMK
     AO2 T00211022=
KPDC 232115Z AUTO 28014KT 10SM CLR 01/M05 A3022 RMK AO2
     T00101047=
KPDC 232055Z AUTO 28013G17KT 10SM CLR 01/M04 A3022 RMK AO2
     T00131043=
KRAC 232053Z AUTO 26010KT 10SM OVC016 04/01 A3018 RMK AO2
     SLP224 T00390006 53016=
KRCX 232115Z AUTO 26011G15KT 10SM OVC023 00/M05 A3013 RMK
     AO2 T10051050=
KRCX 232055Z AUTO 26011KT 10SM BKN023 BKN029 M01/M05 A3013
     RMK AO2 60001 T10061050=
KRHI 232120Z AUTO 28012G21KT 10SM SCT010 OVC014 M02/M04
     A3005 RMK AO2 T10171039=
KRHI 232053Z AUTO 27016G19KT 10SM OVC008 M02/M03 A3004 RMK
     AO2 SLP196 60000 T10171028 53012=
KRNH 232115Z AUTO 27010KT 10SM CLR 00/M06 A3016 RMK AO2
     T10011063=
KRNH 232055Z AUTO 26011G14KT 10SM CLR 00/M06 A3017 RMK AO2
     P0001 60006 T10021062=
KRPD 232115Z AUTO 26009KT 10SM OVC024 M01/M05 A3016 RMK AO2
     T10091054=
KRPD 232055Z AUTO 25009KT 10SM OVC022 M01/M05 A3016 RMK AO2
     T10101051=
KRRL 232115Z AUTO 28011KT 10SM BKN017 BKN024 M01/M04 A3010
     RMK AO2 T10091040=
KRRL 232055Z AUTO 29010G20KT 10SM SCT010 OVC018 M01/M03
     A3009 RMK AO2 T10121034=
KRYV 232115Z AUTO 27006KT 10SM OVC020 03/00 A3015 RMK AO2
     T00260001=
KRYV 232055Z AUTO 26006G14KT 10SM OVC020 03/00 A3014 RMK AO2
     T00260000=
KRZN 232115Z AUTO 26010KT 10SM SCT028 00/M06 A3014 RMK AO2
     P0001 T00011060=
KRZN 232055Z AUTO 29006KT 10SM SCT028 00/M06 A3014 RMK AO2
     60008 T00011060=
KSBM 232053Z AUTO 28011G19KT 10SM OVC017 03/01 A3011 RMK AO2
     SLP202 T00280006 53008 TSNO=
KSTE 232115Z AUTO 29008G22KT 10SM OVC016 M02/M04 A3013 RMK
     AO2 T10161043=
KSTE 232055Z AUTO 28012G24KT 10SM OVC016 M01/M04 A3013 RMK
     AO2 T10151042=
KSUE 232056Z AUTO 26010KT 10SM OVC023 03/M01 A3006 RMK AO2
     SLP203 T00281006 53012=
KSUW 232115Z AUTO 23008KT 10SM BKN031 00/M05 A3012 RMK AO2
     T00031052=
KSUW 232055Z AUTO 24008KT 10SM OVC029 00/M05 A3012 RMK AO2
     T00021052=
KTKV 232115Z AUTO 27008G15KT 10SM BKN014 OVC021 M01/M04
     A3007 RMK AO2 T10151044=
KTKV 232055Z AUTO 28011G15KT 7SM BKN012 OVC017 M01/M04 A3007
     RMK AO2 T10151040=
KUES 232045Z 25013G17KT 10SM OVC014 02/M01 A3015=
KUNU 232115Z AUTO 25007KT 10SM OVC017 02/00 A3016 RMK AO2
     T00171005=
KUNU 232055Z AUTO 25010G17KT 10SM OVC017 02/00 A3015 RMK AO2
     T00171005=
KVOK 232056Z 28010KT 10SM OVC022 01/M03 A3017 RMK AO2A
     SLP231 52020=
KVOK 232056Z 28010KT 10SM OVC022 01/M03 A3017 RMK AO2A
     SLP231 52020=
METAR KVOK 232056Z 28010KT 10SM OVC022 01/M03 A3017 RMK AO2A
     SLP231 52020=
METAR KVOK 232056Z 28010KT 10SM OVC022 01/M03 A3017 RMK AO2A
     SLP231 52020=
KY50 232056Z AUTO 27014KT 10SM OVC018 01/M03 A3015 RMK AO2
     SLP238 6//// T00061028 53020=
KY51 232115Z AUTO 27008KT 10SM OVC022 00/M02 A3018 RMK AO1
     T00001024=
KY51 232055Z AUTO 29008KT 10SM BKN022 00/M02 A3017 RMK AO1
     T00001024=
KDBQ 232053Z 28015G21KT 10SM BKN016 00/M04 A3022 RMK AO2
     SLP243 T00001039 51008=
KRST 232054Z 26014KT 3SM BR OVC007 M06/M07 A3020 RMK AO2 SFC
     VIS 3 SLP246 T10561072 51008=
KMSP 232053Z 25008KT 10SM FEW020 00/M05 A3019 RMK AO2 SLP236
     T00001050 53001=
KRFD 232054Z 27010KT 10SM OVC018 04/00 A3021 RMK AO2 SLP237
     T00390000 53005=
KORD 232051Z 24011KT 10SM OVC010 04/02 A3020 RMK AO2 SLP233
     T00390017 53016=